LIPO

Brescia Airport

Airport
ICAO code
LIPO
IATA Code
VBS
Summary
ICAO Region
EUR
ICAO Territory
Location

Monichiari, Lombardy

Serving
Brescia
Elevation
356 ft
Coordinates
45° 25' 41" N , 10° 19' 42" E
KCC
Metar
Observation
LIPO 031920Z AUTO 24010KT 3400 BR NCD 05/05 Q1021
Station
Brescia / Montichia
Date/Time
2023-02-03 19:20:00
Wind direction
240°
Wind speed
10 kts
Lowest cloud amount
no clouds detected
Temperature
5°C
Dew point
5°C
Humidity
100%
QNH
1021 hPa
Weather condition
n/a

Brescia "Gabriele D'Annunzio" Airport, also known as Montichiari Airport, is located in Montichiari, southeast of City of Brescia, Italy.

Climatology

Humid subtropical climate (Köppen climate classification Cfa)

Runways

Designator Length Width Surface Rops
14/32 2990 45 ASP Yes/Yes

Airport map

Aerial View

SKYbrary Partners:

Safety knowledge contributed by: